createdAt,value
2023-01-28T00:01:33.745Z,6.23
2023-01-28T00:04:01.471Z,4.10
2023-01-28T00:06:28.895Z,4.14
2023-01-28T00:08:56.311Z,4.53
2023-01-28T00:11:23.985Z,5.84
2023-01-28T00:13:52.970Z,6.66
2023-01-28T00:16:22.699Z,5.68
2023-01-28T00:18:51.832Z,4.85
2023-01-28T00:21:19.260Z,4.18
2023-01-28T00:23:54.835Z,3.56
2023-01-28T00:26:23.877Z,3.61
2023-01-28T00:28:51.413Z,3.82
2023-01-28T00:31:22.379Z,3.82
2023-01-28T00:33:51.235Z,3.69
2023-01-28T00:36:19.786Z,5.17
2023-01-28T00:38:56.117Z,6.33
2023-01-28T00:41:26.236Z,6.95
2023-01-28T00:43:54.108Z,6.21
2023-01-28T00:46:22.833Z,6.44
2023-01-28T00:48:50.682Z,8.21
2023-01-28T00:51:20.118Z,6.30
2023-01-28T00:53:49.881Z,5.58
2023-01-28T00:56:19.462Z,5.98
2023-01-28T00:58:47.328Z,7.57
2023-01-28T01:01:18.445Z,8.33
2023-01-28T01:03:46.623Z,8.36
2023-01-28T01:06:16.333Z,6.88
2023-01-28T01:08:50.128Z,8.30
2023-01-28T01:11:19.014Z,7.98
2023-01-28T01:13:56.884Z,8.06
2023-01-28T01:16:27.509Z,6.24
2023-01-28T01:18:55.895Z,7.85
2023-01-28T01:21:25.082Z,8.05
2023-01-28T01:23:53.636Z,7.63
2023-01-28T01:26:22.946Z,7.22
2023-01-28T01:28:52.152Z,7.77
2023-01-28T01:31:21.427Z,6.53
2023-01-28T01:33:50.505Z,6.21
2023-01-28T01:36:20.038Z,5.99
2023-01-28T01:38:48.529Z,7.76
2023-01-28T01:41:28.932Z,7.72
2023-01-28T01:44:02.658Z,7.39
2023-01-28T01:46:39.671Z,7.24
2023-01-28T01:49:20.388Z,6.78
2023-01-28T01:51:51.137Z,6.72
2023-01-28T01:54:19.304Z,5.47
2023-01-28T01:56:47.845Z,3.27
2023-01-28T01:59:19.200Z,2.46
2023-01-28T02:01:47.328Z,2.95
2023-01-28T02:04:20.463Z,1.85
2023-01-28T02:06:48.610Z,2.48
2023-01-28T02:09:27.011Z,2.47
2023-01-28T02:11:56.947Z,2.43
2023-01-28T02:14:31.388Z,2.02
2023-01-28T02:17:02.313Z,2.06
2023-01-28T02:19:38.089Z,2.27
2023-01-28T02:22:10.294Z,2.69
2023-01-28T02:25:00.312Z,2.38
2023-01-28T02:27:58.708Z,2.75
2023-01-28T02:30:30.966Z,4.27
2023-01-28T02:33:06.999Z,3.12
2023-01-28T02:35:39.044Z,4.64
2023-01-28T02:38:13.610Z,5.15
2023-01-28T02:41:02.229Z,4.26
2023-01-28T02:43:32.489Z,4.75
2023-01-28T02:46:19.290Z,3.76
2023-01-28T02:48:47.089Z,3.30
2023-01-28T02:51:26.267Z,4.86
2023-01-28T02:54:12.800Z,5.62
2023-01-28T02:56:48.019Z,3.53
2023-01-28T02:59:37.067Z,3.14
2023-01-28T03:02:38.331Z,3.78
2023-01-28T03:05:11.980Z,3.55
2023-01-28T03:07:39.773Z,3.91
2023-01-28T03:10:10.079Z,2.72
2023-01-28T03:12:58.657Z,3.04
2023-01-28T03:15:48.366Z,3.99
2023-01-28T03:19:04.382Z,3.80
2023-01-28T03:21:55.391Z,5.54
2023-01-28T03:24:49.236Z,5.26
2023-01-28T03:27:44.740Z,4.56
2023-01-28T03:30:35.716Z,4.27
2023-01-28T03:33:23.514Z,3.59
2023-01-28T03:36:09.430Z,2.11
2023-01-28T03:38:43.043Z,1.69
2023-01-28T03:41:11.537Z,2.17
2023-01-28T03:43:39.311Z,3.25
2023-01-28T03:46:06.875Z,4.52
2023-01-28T03:48:35.570Z,3.56
2023-01-28T03:51:04.170Z,3.97
2023-01-28T03:53:33.266Z,4.08
2023-01-28T03:56:00.709Z,5.56
2023-01-28T03:58:46.069Z,3.67
2023-01-28T04:01:13.911Z,3.68
2023-01-28T04:03:42.998Z,2.39
2023-01-28T04:06:10.981Z,2.81
2023-01-28T04:08:40.111Z,3.35
2023-01-28T04:11:19.366Z,3.46
2023-01-28T04:13:48.483Z,3.00
2023-01-28T04:16:17.769Z,3.59
2023-01-28T04:18:45.402Z,5.07
2023-01-28T04:21:13.887Z,4.47
2023-01-28T04:23:41.625Z,3.29
2023-01-28T04:26:09.866Z,2.45
2023-01-28T04:28:38.163Z,2.27
2023-01-28T04:31:06.872Z,3.03
2023-01-28T04:33:35.076Z,2.89
2023-01-28T04:36:02.787Z,3.88
2023-01-28T04:38:31.105Z,2.87
2023-01-28T04:40:58.764Z,3.95
2023-01-28T04:43:26.309Z,3.78
2023-01-28T04:45:54.485Z,2.64
2023-01-28T04:48:21.959Z,2.90
2023-01-28T04:50:50.927Z,3.47
2023-01-28T04:53:18.839Z,3.59
2023-01-28T04:55:46.748Z,2.93
2023-01-28T04:58:14.242Z,3.61
2023-01-28T05:00:42.572Z,3.02
2023-01-28T05:03:12.102Z,4.04
2023-01-28T05:05:39.545Z,6.54
2023-01-28T05:08:09.149Z,7.81
2023-01-28T05:10:36.812Z,6.95
2023-01-28T05:13:04.583Z,7.77
2023-01-28T05:15:32.345Z,8.62
2023-01-28T05:18:00.167Z,4.22
2023-01-28T05:20:29.132Z,7.92
2023-01-28T05:22:57.402Z,9.23
2023-01-28T05:25:24.958Z,8.34
2023-01-28T05:27:52.760Z,7.49
2023-01-28T05:30:20.946Z,6.27
2023-01-28T05:32:48.680Z,7.91
2023-01-28T05:35:16.943Z,7.91
2023-01-28T05:37:44.989Z,6.94
2023-01-28T05:40:13.120Z,7.09
2023-01-28T05:42:40.790Z,7.15
2023-01-28T05:45:10.052Z,5.28
2023-01-28T05:47:38.633Z,6.14
2023-01-28T05:50:07.461Z,5.84
2023-01-28T05:52:35.335Z,5.26
2023-01-28T05:55:03.129Z,5.69
2023-01-28T05:57:30.603Z,5.66
2023-01-28T05:59:58.362Z,4.89
2023-01-28T06:02:25.887Z,4.95
2023-01-28T06:04:54.193Z,4.93
2023-01-28T06:07:21.755Z,4.62
2023-01-28T06:09:49.385Z,4.64
2023-01-28T06:12:17.390Z,5.24
2023-01-28T06:14:46.833Z,5.47
2023-01-28T06:17:14.666Z,5.47
2023-01-28T06:19:44.295Z,4.95
2023-01-28T06:22:11.861Z,4.62
2023-01-28T06:24:39.451Z,4.75
2023-01-28T06:27:07.230Z,5.17
2023-01-28T06:29:34.682Z,4.98
2023-01-28T06:32:02.110Z,5.76
2023-01-28T06:34:29.897Z,4.72
2023-01-28T06:36:57.318Z,4.93
2023-01-28T06:39:27.000Z,5.52
2023-01-28T06:41:54.687Z,5.53
2023-01-28T06:44:23.542Z,5.18
2023-01-28T06:46:51.148Z,4.89
2023-01-28T06:49:18.812Z,4.95
2023-01-28T06:51:46.194Z,5.21
2023-01-28T06:54:13.626Z,5.81
2023-01-28T06:56:41.377Z,5.43
2023-01-28T06:59:08.927Z,5.00
2023-01-28T07:01:36.640Z,4.83
2023-01-28T07:04:04.452Z,4.92
2023-01-28T07:06:31.818Z,3.78
2023-01-28T07:08:59.233Z,5.32
2023-01-28T07:11:27.003Z,4.12
2023-01-28T07:13:54.481Z,5.44
2023-01-28T07:16:22.340Z,5.32
2023-01-28T07:18:51.231Z,5.71
2023-01-28T07:21:18.634Z,5.66
2023-01-28T07:23:46.018Z,3.62
2023-01-28T07:26:14.370Z,4.81
2023-01-28T07:28:41.751Z,5.95
2023-01-28T07:31:09.382Z,6.59
2023-01-28T07:33:37.162Z,7.07
2023-01-28T07:36:04.930Z,6.49
2023-01-28T07:38:32.339Z,6.08
2023-01-28T07:41:00.023Z,6.94
2023-01-28T07:43:27.404Z,6.24
2023-01-28T07:45:54.824Z,6.71
2023-01-28T07:48:22.573Z,5.76
2023-01-28T07:50:51.890Z,5.87
2023-01-28T07:53:20.131Z,6.07
2023-01-28T07:55:47.820Z,7.01
2023-01-28T07:58:15.243Z,6.55
2023-01-28T08:00:42.662Z,6.33
2023-01-28T08:03:15.833Z,6.81
2023-01-28T08:05:48.317Z,6.03
2023-01-28T08:08:16.830Z,6.78
2023-01-28T08:10:45.073Z,6.42
2023-01-28T08:13:14.061Z,6.22
2023-01-28T08:15:41.978Z,6.62
2023-01-28T08:18:13.198Z,5.86
2023-01-28T08:20:42.982Z,6.28
2023-01-28T08:23:16.248Z,6.40
2023-01-28T08:25:44.104Z,5.75
2023-01-28T08:28:12.383Z,4.56
2023-01-28T08:30:40.666Z,4.19
2023-01-28T08:33:09.818Z,4.64
2023-01-28T08:35:37.752Z,5.06
2023-01-28T08:38:06.563Z,4.68
2023-01-28T08:40:34.370Z,4.45
2023-01-28T08:43:02.494Z,5.56
2023-01-28T08:45:30.313Z,5.83
2023-01-28T08:48:03.128Z,5.80
2023-01-28T08:50:34.386Z,5.17
2023-01-28T08:53:04.616Z,4.62
2023-01-28T08:55:33.597Z,4.73
2023-01-28T08:58:05.938Z,5.32
2023-01-28T09:00:34.944Z,5.30
2023-01-28T09:03:04.709Z,6.62
2023-01-28T09:05:37.466Z,6.15
2023-01-28T09:08:13.163Z,6.55
2023-01-28T09:10:42.139Z,6.35
2023-01-28T09:13:16.132Z,6.17
2023-01-28T09:15:44.271Z,6.13
2023-01-28T09:18:11.710Z,5.95
2023-01-28T09:20:40.317Z,5.87
2023-01-28T09:23:08.270Z,6.36
2023-01-28T09:25:39.003Z,6.18
2023-01-28T09:28:06.461Z,6.65
2023-01-28T09:30:37.065Z,6.55
2023-01-28T09:33:06.182Z,7.19
2023-01-28T09:35:34.381Z,7.28
2023-01-28T09:38:01.810Z,7.13
2023-01-28T09:40:34.727Z,6.60
2023-01-28T09:43:38.167Z,7.09
2023-01-28T09:46:06.555Z,6.46
2023-01-28T09:48:42.073Z,5.15
2023-01-28T09:51:27.262Z,6.56
2023-01-28T09:53:58.532Z,7.01
2023-01-28T09:56:30.628Z,5.94
2023-01-28T09:59:06.137Z,4.25
2023-01-28T10:01:44.736Z,2.98
2023-01-28T10:04:23.235Z,3.63
2023-01-28T10:07:11.248Z,4.52
2023-01-28T10:09:53.922Z,3.22
2023-01-28T10:12:42.629Z,5.23
2023-01-28T10:15:34.681Z,4.57
2023-01-28T10:18:16.556Z,5.44
2023-01-28T10:20:56.133Z,6.16
2023-01-28T10:23:49.305Z,4.51
2023-01-28T10:26:23.400Z,6.06
2023-01-28T10:28:55.775Z,7.36
2023-01-28T10:31:24.660Z,4.61
2023-01-28T10:33:52.123Z,4.95
2023-01-28T10:36:19.727Z,3.50
2023-01-28T10:38:47.580Z,4.02
2023-01-28T10:41:20.955Z,3.69
2023-01-28T10:43:49.862Z,4.47
2023-01-28T10:46:28.459Z,3.74
2023-01-28T10:49:41.878Z,6.39
2023-01-28T10:52:14.118Z,3.69
2023-01-28T10:54:41.791Z,4.00
2023-01-28T10:57:14.678Z,3.97
2023-01-28T10:59:43.026Z,4.28
2023-01-28T11:02:27.288Z,5.31
2023-01-28T11:05:28.665Z,6.20
2023-01-28T11:08:19.446Z,3.25
2023-01-28T11:10:48.889Z,3.72
2023-01-28T11:13:21.721Z,3.39
2023-01-28T11:16:17.616Z,3.77
2023-01-28T11:18:52.853Z,5.56
2023-01-28T11:21:23.762Z,4.86
2023-01-28T11:24:05.026Z,5.54
2023-01-28T11:26:38.347Z,5.67
2023-01-28T11:29:06.344Z,4.66
2023-01-28T11:31:40.985Z,4.42
2023-01-28T11:34:08.400Z,4.48
2023-01-28T11:36:36.086Z,5.37
2023-01-28T11:39:18.234Z,6.25
2023-01-28T11:41:47.221Z,4.28
2023-01-28T11:44:23.692Z,3.29
2023-01-28T11:47:12.449Z,3.62
2023-01-28T11:49:49.021Z,5.92
2023-01-28T11:52:48.630Z,4.01
2023-01-28T11:55:40.764Z,6.61
2023-01-28T11:58:32.210Z,3.55
2023-01-28T12:01:17.877Z,3.44
2023-01-28T12:04:20.811Z,6.04
2023-01-28T12:07:13.253Z,6.91
2023-01-28T12:10:24.965Z,5.03
2023-01-28T12:12:58.729Z,6.46
2023-01-28T12:16:01.790Z,6.93
2023-01-28T12:18:41.269Z,7.76
2023-01-28T12:21:39.241Z,4.40
2023-01-28T12:24:21.861Z,5.69
2023-01-28T12:26:55.441Z,7.25
2023-01-28T12:29:27.388Z,4.63
2023-01-28T12:32:08.543Z,4.79
2023-01-28T12:34:50.222Z,7.15
2023-01-28T12:37:47.262Z,5.62
2023-01-28T12:40:45.449Z,4.44
2023-01-28T12:43:26.784Z,5.54
2023-01-28T12:45:58.043Z,4.11
2023-01-28T12:48:30.748Z,4.98
2023-01-28T12:51:12.753Z,6.31
2023-01-28T12:53:47.120Z,5.70
2023-01-28T12:56:18.071Z,7.04
2023-01-28T12:58:50.785Z,6.57
2023-01-28T13:01:35.756Z,6.77
2023-01-28T13:04:12.721Z,6.08
2023-01-28T13:07:02.854Z,6.50
2023-01-28T13:09:36.215Z,5.84
2023-01-28T13:12:04.571Z,7.80
2023-01-28T13:14:33.352Z,6.48
2023-01-28T13:17:11.963Z,6.39
2023-01-28T13:19:42.721Z,8.06
2023-01-28T13:22:31.817Z,8.14
2023-01-28T13:25:23.181Z,7.42
2023-01-28T13:28:06.821Z,8.52
2023-01-28T13:30:47.177Z,8.06
2023-01-28T13:33:32.507Z,7.93
2023-01-28T13:36:06.010Z,7.08
2023-01-28T13:38:34.147Z,7.07
2023-01-28T13:41:04.523Z,8.13
2023-01-28T13:43:34.907Z,8.01
2023-01-28T13:46:13.862Z,7.81
2023-01-28T13:48:46.970Z,6.43
2023-01-28T13:51:23.540Z,7.01
2023-01-28T13:53:58.820Z,6.26
2023-01-28T13:56:29.905Z,6.25
2023-01-28T13:59:08.121Z,6.75
2023-01-28T14:01:47.290Z,6.89
2023-01-28T14:04:36.599Z,7.11
2023-01-28T14:07:39.413Z,6.40
2023-01-28T14:10:26.713Z,6.44
2023-01-28T14:13:26.970Z,5.79
2023-01-28T14:15:59.047Z,6.40
2023-01-28T14:18:29.418Z,6.81
2023-01-28T14:21:01.605Z,6.61
2023-01-28T14:23:32.329Z,6.36
2023-01-28T14:26:10.142Z,6.53
2023-01-28T14:29:22.813Z,6.28
2023-01-28T14:31:51.054Z,6.87
2023-01-28T14:34:47.864Z,6.26
2023-01-28T14:37:18.854Z,6.62
2023-01-28T14:39:52.712Z,6.81
2023-01-28T14:42:25.788Z,6.74
2023-01-28T14:45:29.847Z,6.38
2023-01-28T14:48:20.870Z,6.82
2023-01-28T14:51:25.732Z,6.52
2023-01-28T14:54:11.890Z,6.79
2023-01-28T14:57:11.613Z,7.05
2023-01-28T14:59:43.455Z,7.09
2023-01-28T15:02:20.179Z,6.97
2023-01-28T15:04:48.220Z,6.67
2023-01-28T15:07:26.687Z,7.26
2023-01-28T15:10:05.385Z,8.15
2023-01-28T15:12:38.982Z,8.53
2023-01-28T15:15:28.390Z,7.61
2023-01-28T15:18:02.227Z,6.14
2023-01-28T15:20:30.160Z,7.07
2023-01-28T15:22:58.278Z,6.57
2023-01-28T15:25:28.631Z,7.24
2023-01-28T15:27:59.824Z,6.81
2023-01-28T15:30:30.579Z,7.41
2023-01-28T15:33:17.100Z,7.05
2023-01-28T15:35:49.007Z,7.17
2023-01-28T15:38:20.274Z,6.95
2023-01-28T15:40:55.121Z,7.40
2023-01-28T15:43:25.984Z,6.81
2023-01-28T15:45:57.702Z,6.93
2023-01-28T15:48:27.513Z,6.97
2023-01-28T15:51:25.065Z,6.03
2023-01-28T15:53:57.497Z,7.16
2023-01-28T15:56:27.872Z,6.68
2023-01-28T15:59:16.717Z,7.61
2023-01-28T16:01:44.269Z,7.51
2023-01-28T16:04:27.109Z,6.82
2023-01-28T16:06:56.544Z,7.29
2023-01-28T16:09:28.705Z,7.09
2023-01-28T16:12:04.054Z,7.68
2023-01-28T16:14:37.804Z,8.45
2023-01-28T16:17:05.424Z,7.19
2023-01-28T16:19:41.756Z,7.67
2023-01-28T16:22:21.804Z,7.96
2023-01-28T16:24:53.029Z,6.80
2023-01-28T16:27:22.300Z,6.45
2023-01-28T16:29:50.526Z,5.95
2023-01-28T16:32:33.497Z,5.80
2023-01-28T16:35:02.025Z,5.31
2023-01-28T16:37:29.948Z,5.84
2023-01-28T16:40:00.290Z,5.76
2023-01-28T16:42:31.927Z,6.01
2023-01-28T16:44:59.991Z,5.78
2023-01-28T16:47:30.639Z,5.42
2023-01-28T16:49:58.757Z,5.50
2023-01-28T16:52:27.032Z,4.95
2023-01-28T16:54:54.801Z,4.71
2023-01-28T16:57:22.855Z,5.38
2023-01-28T16:59:50.598Z,5.16
2023-01-28T17:02:18.106Z,4.97
2023-01-28T17:04:46.835Z,5.77
2023-01-28T17:07:14.598Z,5.46
2023-01-28T17:09:42.194Z,6.06
2023-01-28T17:12:10.052Z,5.84
2023-01-28T17:14:39.419Z,5.99
2023-01-28T17:17:07.029Z,6.17
2023-01-28T17:19:35.108Z,5.62
2023-01-28T17:22:02.613Z,5.13
2023-01-28T17:24:30.605Z,5.89
2023-01-28T17:26:58.694Z,6.33
2023-01-28T17:29:27.282Z,6.76
2023-01-28T17:31:55.376Z,5.90
2023-01-28T17:34:24.023Z,5.96
2023-01-28T17:36:51.907Z,4.98
2023-01-28T17:39:20.113Z,3.48
2023-01-28T17:41:52.139Z,5.87
2023-01-28T17:44:20.130Z,6.63
2023-01-28T17:46:48.489Z,6.50
2023-01-28T17:49:16.868Z,6.14
2023-01-28T17:51:45.199Z,5.60
2023-01-28T17:54:14.436Z,6.69
2023-01-28T17:56:42.211Z,6.33
2023-01-28T17:59:11.675Z,7.24
2023-01-28T18:01:40.860Z,7.35
2023-01-28T18:04:10.362Z,5.29
2023-01-28T18:06:38.224Z,6.26
2023-01-28T18:09:07.532Z,7.07
2023-01-28T18:11:37.632Z,5.87
2023-01-28T18:14:05.953Z,6.52
2023-01-28T18:16:33.929Z,6.59
2023-01-28T18:19:03.104Z,6.21
2023-01-28T18:21:50.525Z,6.91
2023-01-28T18:24:24.473Z,5.74
2023-01-28T18:26:55.275Z,6.50
2023-01-28T18:29:24.201Z,7.00
2023-01-28T18:31:55.192Z,7.21
2023-01-28T18:34:26.590Z,6.48
2023-01-28T18:36:54.994Z,6.70
2023-01-28T18:39:23.789Z,6.18
2023-01-28T18:41:56.482Z,6.63
2023-01-28T18:44:27.012Z,6.03
2023-01-28T18:46:54.915Z,6.07
2023-01-28T18:49:23.188Z,6.81
2023-01-28T18:51:51.425Z,6.75
2023-01-28T18:54:20.865Z,6.43
2023-01-28T18:56:49.351Z,6.42
2023-01-28T18:59:17.856Z,5.66
2023-01-28T19:01:48.265Z,5.52
2023-01-28T19:04:16.935Z,6.08
2023-01-28T19:06:46.531Z,6.84
2023-01-28T19:09:15.868Z,6.97
2023-01-28T19:11:45.180Z,6.71
2023-01-28T19:14:14.875Z,7.17
2023-01-28T19:16:50.364Z,7.11
2023-01-28T19:19:19.129Z,7.09
2023-01-28T19:21:47.940Z,6.93
2023-01-28T19:24:17.521Z,6.86
2023-01-28T19:26:45.907Z,6.78
2023-01-28T19:29:16.388Z,6.00
2023-01-28T19:31:44.793Z,7.90
2023-01-28T19:34:13.410Z,6.63
2023-01-28T19:36:42.802Z,8.18
2023-01-28T19:39:11.712Z,8.32
2023-01-28T19:41:41.668Z,8.65
2023-01-28T19:44:09.923Z,9.03
2023-01-28T19:46:37.599Z,8.16
2023-01-28T19:49:06.588Z,9.16
2023-01-28T19:51:35.447Z,8.42
2023-01-28T19:54:03.706Z,8.12
2023-01-28T19:56:36.538Z,5.87
2023-01-28T19:59:04.990Z,8.65
2023-01-28T20:01:36.059Z,8.41
2023-01-28T20:04:05.071Z,9.71
2023-01-28T20:06:34.164Z,10.06
2023-01-28T20:09:09.089Z,10.16
2023-01-28T20:11:38.511Z,7.83
2023-01-28T20:14:06.789Z,6.59
2023-01-28T20:16:36.145Z,7.92
2023-01-28T20:19:06.997Z,6.04
2023-01-28T20:21:36.158Z,6.56
2023-01-28T20:24:06.931Z,7.06
2023-01-28T20:26:37.496Z,6.07
2023-01-28T20:29:11.046Z,7.60
2023-01-28T20:31:40.743Z,6.58
2023-01-28T20:34:15.127Z,8.57
2023-01-28T20:36:43.682Z,6.13
2023-01-28T20:39:12.738Z,7.69
2023-01-28T20:41:41.276Z,6.99
2023-01-28T20:44:09.782Z,8.07
2023-01-28T20:46:39.391Z,8.40
2023-01-28T20:49:08.112Z,7.71
2023-01-28T20:51:36.903Z,5.36
2023-01-28T20:54:06.043Z,7.87
2023-01-28T20:56:34.666Z,7.47
2023-01-28T20:59:04.527Z,5.39
2023-01-28T21:01:34.752Z,4.31
2023-01-28T21:04:10.536Z,5.86
2023-01-28T21:06:40.334Z,4.28
2023-01-28T21:09:08.694Z,3.30
2023-01-28T21:11:36.825Z,3.49
2023-01-28T21:14:04.638Z,3.84
2023-01-28T21:16:32.793Z,6.17
2023-01-28T21:19:00.546Z,7.15
2023-01-28T21:21:29.287Z,8.72
2023-01-28T21:24:01.113Z,8.78
2023-01-28T21:26:29.915Z,8.89
2023-01-28T21:28:57.942Z,8.30
2023-01-28T21:31:27.022Z,7.16
2023-01-28T21:34:01.540Z,6.37
2023-01-28T21:36:34.231Z,6.86
2023-01-28T21:39:03.745Z,6.97
2023-01-28T21:41:33.030Z,6.85
2023-01-28T21:44:00.419Z,5.35
2023-01-28T21:46:30.947Z,5.16
2023-01-28T21:49:00.304Z,6.16
2023-01-28T21:51:46.062Z,6.24
2023-01-28T21:54:18.387Z,5.43
2023-01-28T21:56:48.672Z,6.65
2023-01-28T21:59:29.325Z,4.98
2023-01-28T22:02:05.761Z,5.35
2023-01-28T22:04:37.965Z,4.96
2023-01-28T22:07:10.082Z,5.67
2023-01-28T22:09:39.731Z,5.52
2023-01-28T22:12:08.174Z,5.10
2023-01-28T22:14:36.651Z,5.01
2023-01-28T22:17:04.952Z,3.92
2023-01-28T22:19:32.377Z,5.16
2023-01-28T22:21:59.757Z,4.91
2023-01-28T22:24:27.828Z,5.14
2023-01-28T22:26:55.251Z,5.34
2023-01-28T22:29:23.492Z,5.22
2023-01-28T22:31:53.084Z,5.09
2023-01-28T22:34:21.211Z,4.76
2023-01-28T22:36:50.235Z,5.32
2023-01-28T22:39:18.406Z,5.01
2023-01-28T22:41:46.754Z,5.23
2023-01-28T22:44:14.689Z,5.86
2023-01-28T22:46:42.434Z,6.18
2023-01-28T22:49:11.867Z,6.02
2023-01-28T22:51:39.340Z,6.14
2023-01-28T22:54:07.263Z,6.13
2023-01-28T22:56:34.674Z,6.38
2023-01-28T22:59:04.011Z,6.13
2023-01-28T23:01:32.214Z,5.41
2023-01-28T23:03:59.683Z,6.12
2023-01-28T23:06:28.198Z,6.46
2023-01-28T23:08:56.674Z,7.17
2023-01-28T23:11:25.526Z,5.28
2023-01-28T23:14:19.849Z,7.14
2023-01-28T23:17:06.907Z,7.72
2023-01-28T23:19:53.169Z,6.72
2023-01-28T23:22:49.657Z,6.62
2023-01-28T23:25:17.963Z,6.03
2023-01-28T23:27:45.940Z,6.00
2023-01-28T23:30:14.506Z,7.35
2023-01-28T23:32:53.855Z,8.90
2023-01-28T23:35:21.657Z,8.63
2023-01-28T23:37:49.112Z,8.31
2023-01-28T23:40:17.129Z,7.60
2023-01-28T23:42:49.521Z,4.18
2023-01-28T23:45:17.713Z,5.12
2023-01-28T23:47:45.392Z,3.84
2023-01-28T23:50:12.990Z,3.70
2023-01-28T23:52:40.457Z,5.88
2023-01-28T23:55:08.108Z,5.09
2023-01-28T23:57:38.297Z,4.07
